sensor_id;sensor_type;location;lat;lon;timestamp;P1;durP1;ratioP1;P2;durP2;ratioP2
9970;SDS011;5026;51.494;11.974;2022-11-18T00:01:36;41.10;;;22.17;;
9970;SDS011;5026;51.494;11.974;2022-11-18T00:04:03;40.67;;;24.50;;
9970;SDS011;5026;51.494;11.974;2022-11-18T00:06:31;43.67;;;26.57;;
9970;SDS011;5026;51.494;11.974;2022-11-18T00:08:58;43.53;;;22.10;;
9970;SDS011;5026;51.494;11.974;2022-11-18T00:11:25;38.60;;;22.00;;
9970;SDS011;5026;51.494;11.974;2022-11-18T00:14:11;37.23;;;20.63;;
9970;SDS011;5026;51.494;11.974;2022-11-18T00:16:47;41.30;;;22.43;;
9970;SDS011;5026;51.494;11.974;2022-11-18T00:19:16;39.43;;;21.33;;
9970;SDS011;5026;51.494;11.974;2022-11-18T00:21:44;40.70;;;21.80;;
9970;SDS011;5026;51.494;11.974;2022-11-18T00:24:11;40.27;;;21.53;;
9970;SDS011;5026;51.494;11.974;2022-11-18T00:26:38;38.40;;;22.40;;
9970;SDS011;5026;51.494;11.974;2022-11-18T00:29:05;40.50;;;23.07;;
9970;SDS011;5026;51.494;11.974;2022-11-18T00:31:31;43.23;;;23.97;;
9970;SDS011;5026;51.494;11.974;2022-11-18T00:33:58;39.43;;;21.27;;
9970;SDS011;5026;51.494;11.974;2022-11-18T00:36:25;41.10;;;22.50;;
9970;SDS011;5026;51.494;11.974;2022-11-18T00:38:54;42.73;;;23.90;;
9970;SDS011;5026;51.494;11.974;2022-11-18T00:41:21;43.27;;;24.13;;
9970;SDS011;5026;51.494;11.974;2022-11-18T00:43:48;45.23;;;25.07;;
9970;SDS011;5026;51.494;11.974;2022-11-18T00:46:14;43.53;;;24.00;;
9970;SDS011;5026;51.494;11.974;2022-11-18T00:48:41;46.80;;;25.57;;
9970;SDS011;5026;51.494;11.974;2022-11-18T00:51:09;41.77;;;22.60;;
9970;SDS011;5026;51.494;11.974;2022-11-18T00:53:39;44.07;;;23.40;;
9970;SDS011;5026;51.494;11.974;2022-11-18T00:56:07;50.53;;;25.63;;
9970;SDS011;5026;51.494;11.974;2022-11-18T00:58:35;47.37;;;25.40;;
9970;SDS011;5026;51.494;11.974;2022-11-18T01:01:02;47.83;;;23.43;;
9970;SDS011;5026;51.494;11.974;2022-11-18T01:03:30;46.03;;;23.63;;
9970;SDS011;5026;51.494;11.974;2022-11-18T01:05:56;51.77;;;23.93;;
9970;SDS011;5026;51.494;11.974;2022-11-18T01:08:23;47.57;;;24.43;;
9970;SDS011;5026;51.494;11.974;2022-11-18T01:10:50;45.83;;;22.63;;
9970;SDS011;5026;51.494;11.974;2022-11-18T01:13:20;49.17;;;28.93;;
9970;SDS011;5026;51.494;11.974;2022-11-18T01:15:48;47.50;;;24.57;;
9970;SDS011;5026;51.494;11.974;2022-11-18T01:18:16;50.50;;;25.17;;
9970;SDS011;5026;51.494;11.974;2022-11-18T01:20:46;50.10;;;26.33;;
9970;SDS011;5026;51.494;11.974;2022-11-18T01:23:13;50.80;;;24.23;;
9970;SDS011;5026;51.494;11.974;2022-11-18T01:25:41;52.97;;;24.63;;
9970;SDS011;5026;51.494;11.974;2022-11-18T01:28:09;50.70;;;24.80;;
9970;SDS011;5026;51.494;11.974;2022-11-18T01:30:38;50.23;;;25.87;;
9970;SDS011;5026;51.494;11.974;2022-11-18T01:33:07;47.27;;;23.37;;
9970;SDS011;5026;51.494;11.974;2022-11-18T01:35:34;52.67;;;27.67;;
9970;SDS011;5026;51.494;11.974;2022-11-18T01:38:01;50.50;;;24.80;;
9970;SDS011;5026;51.494;11.974;2022-11-18T01:40:28;56.23;;;25.70;;
9970;SDS011;5026;51.494;11.974;2022-11-18T01:42:55;51.70;;;27.03;;
9970;SDS011;5026;51.494;11.974;2022-11-18T01:45:29;52.17;;;27.97;;
9970;SDS011;5026;51.494;11.974;2022-11-18T01:48:01;52.60;;;24.70;;
9970;SDS011;5026;51.494;11.974;2022-11-18T01:50:33;49.30;;;25.57;;
9970;SDS011;5026;51.494;11.974;2022-11-18T01:53:03;44.97;;;24.40;;
9970;SDS011;5026;51.494;11.974;2022-11-18T01:55:34;45.77;;;25.47;;
9970;SDS011;5026;51.494;11.974;2022-11-18T01:58:06;48.47;;;24.70;;
9970;SDS011;5026;51.494;11.974;2022-11-18T02:00:36;50.73;;;25.47;;
9970;SDS011;5026;51.494;11.974;2022-11-18T02:03:04;45.53;;;24.37;;
9970;SDS011;5026;51.494;11.974;2022-11-18T02:05:32;45.67;;;23.10;;
9970;SDS011;5026;51.494;11.974;2022-11-18T02:08:00;47.77;;;23.73;;
9970;SDS011;5026;51.494;11.974;2022-11-18T02:10:28;48.80;;;24.23;;
9970;SDS011;5026;51.494;11.974;2022-11-18T02:12:55;46.57;;;23.37;;
9970;SDS011;5026;51.494;11.974;2022-11-18T02:15:25;44.20;;;24.50;;
9970;SDS011;5026;51.494;11.974;2022-11-18T02:18:05;45.93;;;24.07;;
9970;SDS011;5026;51.494;11.974;2022-11-18T02:20:40;41.30;;;23.10;;
9970;SDS011;5026;51.494;11.974;2022-11-18T02:29:17;46.70;;;24.10;;
9970;SDS011;5026;51.494;11.974;2022-11-18T02:31:47;45.37;;;23.67;;
9970;SDS011;5026;51.494;11.974;2022-11-18T02:34:23;42.60;;;23.90;;
9970;SDS011;5026;51.494;11.974;2022-11-18T02:36:58;49.03;;;26.93;;
9970;SDS011;5026;51.494;11.974;2022-11-18T02:39:33;42.50;;;23.67;;
9970;SDS011;5026;51.494;11.974;2022-11-18T02:42:03;45.27;;;26.50;;
9970;SDS011;5026;51.494;11.974;2022-11-18T02:44:37;48.73;;;25.20;;
9970;SDS011;5026;51.494;11.974;2022-11-18T02:47:07;47.40;;;24.47;;
9970;SDS011;5026;51.494;11.974;2022-11-18T02:49:39;44.47;;;24.83;;
9970;SDS011;5026;51.494;11.974;2022-11-18T02:52:09;43.73;;;22.23;;
9970;SDS011;5026;51.494;11.974;2022-11-18T02:54:39;40.10;;;21.47;;
9970;SDS011;5026;51.494;11.974;2022-11-18T02:57:09;43.07;;;23.43;;
9970;SDS011;5026;51.494;11.974;2022-11-18T02:59:39;42.93;;;22.67;;
9970;SDS011;5026;51.494;11.974;2022-11-18T03:02:08;44.30;;;22.37;;
9970;SDS011;5026;51.494;11.974;2022-11-18T03:04:40;43.40;;;23.70;;
9970;SDS011;5026;51.494;11.974;2022-11-18T03:07:08;48.07;;;23.97;;
9970;SDS011;5026;51.494;11.974;2022-11-18T03:09:38;41.40;;;23.60;;
9970;SDS011;5026;51.494;11.974;2022-11-18T03:12:10;40.97;;;21.37;;
9970;SDS011;5026;51.494;11.974;2022-11-18T03:14:48;46.13;;;24.87;;
9970;SDS011;5026;51.494;11.974;2022-11-18T03:17:24;49.43;;;25.57;;
9970;SDS011;5026;51.494;11.974;2022-11-18T03:20:03;46.50;;;23.53;;
9970;SDS011;5026;51.494;11.974;2022-11-18T03:22:38;46.33;;;24.83;;
9970;SDS011;5026;51.494;11.974;2022-11-18T03:25:10;42.33;;;23.40;;
9970;SDS011;5026;51.494;11.974;2022-11-18T03:27:45;48.17;;;24.90;;
9970;SDS011;5026;51.494;11.974;2022-11-18T03:30:19;45.77;;;24.80;;
9970;SDS011;5026;51.494;11.974;2022-11-18T03:32:49;45.30;;;26.33;;
9970;SDS011;5026;51.494;11.974;2022-11-18T03:35:22;50.83;;;25.37;;
9970;SDS011;5026;51.494;11.974;2022-11-18T03:37:51;49.27;;;25.53;;
9970;SDS011;5026;51.494;11.974;2022-11-18T03:40:23;48.87;;;24.83;;
9970;SDS011;5026;51.494;11.974;2022-11-18T03:42:55;44.60;;;23.63;;
9970;SDS011;5026;51.494;11.974;2022-11-18T03:45:28;50.53;;;27.00;;
9970;SDS011;5026;51.494;11.974;2022-11-18T03:48:01;49.43;;;24.67;;
9970;SDS011;5026;51.494;11.974;2022-11-18T03:50:33;46.17;;;23.60;;
9970;SDS011;5026;51.494;11.974;2022-11-18T03:53:04;50.97;;;25.67;;
9970;SDS011;5026;51.494;11.974;2022-11-18T03:55:33;51.07;;;25.33;;
9970;SDS011;5026;51.494;11.974;2022-11-18T03:58:04;47.07;;;24.57;;
9970;SDS011;5026;51.494;11.974;2022-11-18T04:00:38;49.57;;;24.70;;
9970;SDS011;5026;51.494;11.974;2022-11-18T04:03:07;47.73;;;24.97;;
9970;SDS011;5026;51.494;11.974;2022-11-18T04:05:36;50.07;;;26.07;;
9970;SDS011;5026;51.494;11.974;2022-11-18T04:08:06;52.00;;;29.03;;
9970;SDS011;5026;51.494;11.974;2022-11-18T04:10:36;54.03;;;27.77;;
9970;SDS011;5026;51.494;11.974;2022-11-18T04:13:06;53.13;;;26.80;;
9970;SDS011;5026;51.494;11.974;2022-11-18T04:15:38;52.10;;;24.67;;
9970;SDS011;5026;51.494;11.974;2022-11-18T04:18:06;52.73;;;24.57;;
9970;SDS011;5026;51.494;11.974;2022-11-18T04:20:34;51.40;;;26.23;;
9970;SDS011;5026;51.494;11.974;2022-11-18T04:23:02;50.30;;;24.80;;
9970;SDS011;5026;51.494;11.974;2022-11-18T04:25:29;50.80;;;25.43;;
9970;SDS011;5026;51.494;11.974;2022-11-18T04:27:56;48.80;;;23.37;;
9970;SDS011;5026;51.494;11.974;2022-11-18T04:30:23;54.63;;;24.03;;
9970;SDS011;5026;51.494;11.974;2022-11-18T04:32:52;53.77;;;28.00;;
9970;SDS011;5026;51.494;11.974;2022-11-18T04:35:18;50.33;;;23.17;;
9970;SDS011;5026;51.494;11.974;2022-11-18T04:37:45;53.37;;;23.83;;
9970;SDS011;5026;51.494;11.974;2022-11-18T04:40:12;54.07;;;25.77;;
9970;SDS011;5026;51.494;11.974;2022-11-18T04:42:39;58.13;;;28.50;;
9970;SDS011;5026;51.494;11.974;2022-11-18T04:45:06;55.07;;;24.93;;
9970;SDS011;5026;51.494;11.974;2022-11-18T04:47:34;55.57;;;26.33;;
9970;SDS011;5026;51.494;11.974;2022-11-18T04:50:04;62.73;;;26.23;;
9970;SDS011;5026;51.494;11.974;2022-11-18T04:52:31;57.57;;;25.70;;
9970;SDS011;5026;51.494;11.974;2022-11-18T04:54:58;55.60;;;24.03;;
9970;SDS011;5026;51.494;11.974;2022-11-18T04:57:25;57.30;;;25.17;;
9970;SDS011;5026;51.494;11.974;2022-11-18T04:59:52;54.07;;;24.80;;
9970;SDS011;5026;51.494;11.974;2022-11-18T05:02:18;53.83;;;24.87;;
9970;SDS011;5026;51.494;11.974;2022-11-18T05:04:45;55.77;;;24.37;;
9970;SDS011;5026;51.494;11.974;2022-11-18T05:07:14;64.40;;;28.90;;
9970;SDS011;5026;51.494;11.974;2022-11-18T05:09:41;63.90;;;28.87;;
9970;SDS011;5026;51.494;11.974;2022-11-18T05:12:10;58.43;;;27.13;;
9970;SDS011;5026;51.494;11.974;2022-11-18T05:14:55;53.50;;;24.63;;
9970;SDS011;5026;51.494;11.974;2022-11-18T05:17:22;68.53;;;31.17;;
9970;SDS011;5026;51.494;11.974;2022-11-18T05:19:49;64.07;;;27.77;;
9970;SDS011;5026;51.494;11.974;2022-11-18T05:22:18;60.83;;;25.33;;
9970;SDS011;5026;51.494;11.974;2022-11-18T05:24:45;60.30;;;24.03;;
9970;SDS011;5026;51.494;11.974;2022-11-18T05:27:12;62.53;;;25.20;;
9970;SDS011;5026;51.494;11.974;2022-11-18T05:29:39;63.93;;;27.07;;
9970;SDS011;5026;51.494;11.974;2022-11-18T05:32:06;59.70;;;27.63;;
9970;SDS011;5026;51.494;11.974;2022-11-18T05:34:33;65.87;;;27.40;;
9970;SDS011;5026;51.494;11.974;2022-11-18T05:37:00;64.47;;;27.83;;
9970;SDS011;5026;51.494;11.974;2022-11-18T05:39:28;68.17;;;28.80;;
9970;SDS011;5026;51.494;11.974;2022-11-18T05:41:56;59.80;;;26.23;;
9970;SDS011;5026;51.494;11.974;2022-11-18T05:44:46;66.40;;;24.97;;
9970;SDS011;5026;51.494;11.974;2022-11-18T05:47:16;71.87;;;28.03;;
9970;SDS011;5026;51.494;11.974;2022-11-18T05:49:48;67.00;;;26.10;;
9970;SDS011;5026;51.494;11.974;2022-11-18T05:52:16;65.53;;;29.57;;
9970;SDS011;5026;51.494;11.974;2022-11-18T05:54:46;64.90;;;28.47;;
9970;SDS011;5026;51.494;11.974;2022-11-18T05:57:14;65.30;;;27.07;;
9970;SDS011;5026;51.494;11.974;2022-11-18T05:59:41;63.73;;;29.80;;
9970;SDS011;5026;51.494;11.974;2022-11-18T06:02:10;71.97;;;27.50;;
9970;SDS011;5026;51.494;11.974;2022-11-18T06:04:40;67.53;;;26.80;;
9970;SDS011;5026;51.494;11.974;2022-11-18T06:07:11;67.97;;;26.50;;
9970;SDS011;5026;51.494;11.974;2022-11-18T06:09:44;63.67;;;26.43;;
9970;SDS011;5026;51.494;11.974;2022-11-18T06:12:16;69.20;;;26.10;;
9970;SDS011;5026;51.494;11.974;2022-11-18T06:14:46;68.20;;;28.23;;
9970;SDS011;5026;51.494;11.974;2022-11-18T06:17:16;60.33;;;23.97;;
9970;SDS011;5026;51.494;11.974;2022-11-18T06:19:46;64.30;;;26.00;;
9970;SDS011;5026;51.494;11.974;2022-11-18T06:22:13;64.83;;;26.47;;
9970;SDS011;5026;51.494;11.974;2022-11-18T06:24:40;61.00;;;27.33;;
9970;SDS011;5026;51.494;11.974;2022-11-18T06:27:09;65.33;;;27.70;;
9970;SDS011;5026;51.494;11.974;2022-11-18T06:29:36;67.10;;;29.03;;
9970;SDS011;5026;51.494;11.974;2022-11-18T06:32:03;66.17;;;29.70;;
9970;SDS011;5026;51.494;11.974;2022-11-18T06:34:30;66.33;;;26.90;;
9970;SDS011;5026;51.494;11.974;2022-11-18T06:36:57;73.50;;;27.33;;
9970;SDS011;5026;51.494;11.974;2022-11-18T06:39:36;67.50;;;27.57;;
9970;SDS011;5026;51.494;11.974;2022-11-18T06:42:03;65.73;;;26.43;;
9970;SDS011;5026;51.494;11.974;2022-11-18T06:44:32;59.10;;;25.13;;
9970;SDS011;5026;51.494;11.974;2022-11-18T06:46:58;67.93;;;27.57;;
9970;SDS011;5026;51.494;11.974;2022-11-18T06:49:26;64.10;;;25.70;;
9970;SDS011;5026;51.494;11.974;2022-11-18T06:51:53;64.67;;;25.67;;
9970;SDS011;5026;51.494;11.974;2022-11-18T06:54:20;63.67;;;26.90;;
9970;SDS011;5026;51.494;11.974;2022-11-18T06:56:47;69.40;;;26.60;;
9970;SDS011;5026;51.494;11.974;2022-11-18T06:59:14;63.13;;;27.93;;
9970;SDS011;5026;51.494;11.974;2022-11-18T07:01:48;69.93;;;25.60;;
9970;SDS011;5026;51.494;11.974;2022-11-18T07:04:17;68.53;;;28.83;;
9970;SDS011;5026;51.494;11.974;2022-11-18T07:06:44;65.43;;;26.70;;
9970;SDS011;5026;51.494;11.974;2022-11-18T07:09:10;66.07;;;28.37;;
9970;SDS011;5026;51.494;11.974;2022-11-18T07:11:37;65.17;;;26.57;;
9970;SDS011;5026;51.494;11.974;2022-11-18T07:14:05;65.70;;;27.83;;
9970;SDS011;5026;51.494;11.974;2022-11-18T07:16:32;60.30;;;26.27;;
9970;SDS011;5026;51.494;11.974;2022-11-18T07:19:06;69.13;;;29.10;;
9970;SDS011;5026;51.494;11.974;2022-11-18T07:21:34;65.63;;;30.20;;
9970;SDS011;5026;51.494;11.974;2022-11-18T07:24:03;72.43;;;28.33;;
9970;SDS011;5026;51.494;11.974;2022-11-18T07:26:31;62.77;;;25.87;;
9970;SDS011;5026;51.494;11.974;2022-11-18T07:28:57;66.07;;;28.97;;
9970;SDS011;5026;51.494;11.974;2022-11-18T07:31:24;54.37;;;25.00;;
9970;SDS011;5026;51.494;11.974;2022-11-18T07:33:51;57.77;;;25.97;;
9970;SDS011;5026;51.494;11.974;2022-11-18T07:36:20;58.57;;;25.07;;
9970;SDS011;5026;51.494;11.974;2022-11-18T07:38:49;58.20;;;25.30;;
9970;SDS011;5026;51.494;11.974;2022-11-18T07:41:17;62.90;;;27.33;;
9970;SDS011;5026;51.494;11.974;2022-11-18T07:43:45;60.40;;;24.87;;
9970;SDS011;5026;51.494;11.974;2022-11-18T07:46:13;58.57;;;26.00;;
9970;SDS011;5026;51.494;11.974;2022-11-18T07:48:42;61.90;;;26.07;;
9970;SDS011;5026;51.494;11.974;2022-11-18T07:51:10;59.33;;;25.30;;
9970;SDS011;5026;51.494;11.974;2022-11-18T07:53:40;56.63;;;24.60;;
9970;SDS011;5026;51.494;11.974;2022-11-18T07:56:07;59.87;;;26.43;;
9970;SDS011;5026;51.494;11.974;2022-11-18T07:58:35;65.07;;;26.70;;
9970;SDS011;5026;51.494;11.974;2022-11-18T08:01:06;63.33;;;28.70;;
9970;SDS011;5026;51.494;11.974;2022-11-18T08:03:34;60.87;;;28.10;;
9970;SDS011;5026;51.494;11.974;2022-11-18T08:06:01;73.80;;;29.77;;
9970;SDS011;5026;51.494;11.974;2022-11-18T08:08:28;67.07;;;29.67;;
9970;SDS011;5026;51.494;11.974;2022-11-18T08:10:57;71.50;;;31.03;;
9970;SDS011;5026;51.494;11.974;2022-11-18T08:13:25;59.47;;;27.23;;
9970;SDS011;5026;51.494;11.974;2022-11-18T08:15:54;58.30;;;26.20;;
9970;SDS011;5026;51.494;11.974;2022-11-18T08:18:21;60.03;;;25.37;;
9970;SDS011;5026;51.494;11.974;2022-11-18T08:20:48;59.20;;;26.43;;
9970;SDS011;5026;51.494;11.974;2022-11-18T08:23:16;66.70;;;28.03;;
9970;SDS011;5026;51.494;11.974;2022-11-18T08:25:43;57.57;;;27.97;;
9970;SDS011;5026;51.494;11.974;2022-11-18T08:28:13;59.73;;;26.63;;
9970;SDS011;5026;51.494;11.974;2022-11-18T08:30:43;63.00;;;24.60;;
9970;SDS011;5026;51.494;11.974;2022-11-18T08:33:10;61.33;;;27.63;;
9970;SDS011;5026;51.494;11.974;2022-11-18T08:35:37;63.60;;;25.53;;
9970;SDS011;5026;51.494;11.974;2022-11-18T08:38:04;62.97;;;25.90;;
9970;SDS011;5026;51.494;11.974;2022-11-18T08:40:31;67.37;;;27.40;;
9970;SDS011;5026;51.494;11.974;2022-11-18T08:42:59;68.60;;;29.37;;
9970;SDS011;5026;51.494;11.974;2022-11-18T08:45:27;66.30;;;27.47;;
9970;SDS011;5026;51.494;11.974;2022-11-18T08:47:54;72.40;;;30.40;;
9970;SDS011;5026;51.494;11.974;2022-11-18T08:50:21;65.10;;;27.63;;
9970;SDS011;5026;51.494;11.974;2022-11-18T08:52:48;64.30;;;27.57;;
9970;SDS011;5026;51.494;11.974;2022-11-18T08:55:15;64.77;;;29.30;;
9970;SDS011;5026;51.494;11.974;2022-11-18T08:57:42;61.57;;;25.63;;
9970;SDS011;5026;51.494;11.974;2022-11-18T09:00:09;59.13;;;24.57;;
9970;SDS011;5026;51.494;11.974;2022-11-18T09:02:39;61.70;;;25.20;;
9970;SDS011;5026;51.494;11.974;2022-11-18T09:05:06;59.50;;;28.70;;
9970;SDS011;5026;51.494;11.974;2022-11-18T09:07:33;59.63;;;27.00;;
9970;SDS011;5026;51.494;11.974;2022-11-18T09:10:00;53.47;;;23.90;;
9970;SDS011;5026;51.494;11.974;2022-11-18T09:12:27;64.40;;;27.27;;
9970;SDS011;5026;51.494;11.974;2022-11-18T09:14:53;61.07;;;25.97;;
9970;SDS011;5026;51.494;11.974;2022-11-18T09:17:20;66.23;;;27.60;;
9970;SDS011;5026;51.494;11.974;2022-11-18T09:19:48;65.43;;;27.80;;
9970;SDS011;5026;51.494;11.974;2022-11-18T09:22:15;75.33;;;27.63;;
9970;SDS011;5026;51.494;11.974;2022-11-18T09:24:42;70.23;;;28.63;;
9970;SDS011;5026;51.494;11.974;2022-11-18T09:27:09;64.20;;;27.37;;
9970;SDS011;5026;51.494;11.974;2022-11-18T09:29:36;71.67;;;26.57;;
9970;SDS011;5026;51.494;11.974;2022-11-18T09:32:03;66.40;;;24.93;;
9970;SDS011;5026;51.494;11.974;2022-11-18T09:34:32;65.27;;;26.87;;
9970;SDS011;5026;51.494;11.974;2022-11-18T09:37:01;67.13;;;27.77;;
9970;SDS011;5026;51.494;11.974;2022-11-18T09:39:30;68.50;;;27.37;;
9970;SDS011;5026;51.494;11.974;2022-11-18T09:42:00;69.43;;;28.37;;
9970;SDS011;5026;51.494;11.974;2022-11-18T09:44:41;62.97;;;26.20;;
9970;SDS011;5026;51.494;11.974;2022-11-18T09:47:19;71.87;;;29.17;;
9970;SDS011;5026;51.494;11.974;2022-11-18T09:49:52;66.70;;;25.90;;
9970;SDS011;5026;51.494;11.974;2022-11-18T09:52:23;73.07;;;31.90;;
9970;SDS011;5026;51.494;11.974;2022-11-18T09:54:52;75.13;;;30.40;;
9970;SDS011;5026;51.494;11.974;2022-11-18T09:57:20;72.23;;;31.43;;
9970;SDS011;5026;51.494;11.974;2022-11-18T09:59:49;64.90;;;26.97;;
9970;SDS011;5026;51.494;11.974;2022-11-18T10:02:25;67.30;;;27.33;;
9970;SDS011;5026;51.494;11.974;2022-11-18T10:04:56;73.77;;;32.50;;
9970;SDS011;5026;51.494;11.974;2022-11-18T10:07:28;73.27;;;29.17;;
9970;SDS011;5026;51.494;11.974;2022-11-18T10:10:02;78.80;;;30.67;;
9970;SDS011;5026;51.494;11.974;2022-11-18T10:12:38;78.37;;;30.63;;
9970;SDS011;5026;51.494;11.974;2022-11-18T10:15:18;79.93;;;28.23;;
9970;SDS011;5026;51.494;11.974;2022-11-18T10:17:53;79.90;;;31.40;;
9970;SDS011;5026;51.494;11.974;2022-11-18T10:20:31;71.13;;;26.60;;
9970;SDS011;5026;51.494;11.974;2022-11-18T10:23:10;78.30;;;30.63;;
9970;SDS011;5026;51.494;11.974;2022-11-18T10:25:45;67.77;;;26.07;;
9970;SDS011;5026;51.494;11.974;2022-11-18T10:28:17;66.33;;;28.17;;
9970;SDS011;5026;51.494;11.974;2022-11-18T10:30:47;71.37;;;28.43;;
9970;SDS011;5026;51.494;11.974;2022-11-18T10:33:25;57.60;;;24.33;;
9970;SDS011;5026;51.494;11.974;2022-11-18T10:39:05;62.23;;;26.17;;
9970;SDS011;5026;51.494;11.974;2022-11-18T10:44:28;62.23;;;24.87;;
9970;SDS011;5026;51.494;11.974;2022-11-18T10:47:14;63.50;;;23.77;;
9970;SDS011;5026;51.494;11.974;2022-11-18T10:49:44;60.93;;;24.47;;
9970;SDS011;5026;51.494;11.974;2022-11-18T10:52:12;55.37;;;22.77;;
9970;SDS011;5026;51.494;11.974;2022-11-18T10:54:41;48.50;;;21.77;;
9970;SDS011;5026;51.494;11.974;2022-11-18T10:57:12;45.37;;;21.30;;
9970;SDS011;5026;51.494;11.974;2022-11-18T10:59:45;38.30;;;18.03;;
9970;SDS011;5026;51.494;11.974;2022-11-18T11:02:15;38.60;;;17.77;;
9970;SDS011;5026;51.494;11.974;2022-11-18T11:04:45;42.80;;;19.87;;
9970;SDS011;5026;51.494;11.974;2022-11-18T11:07:22;40.17;;;18.23;;
9970;SDS011;5026;51.494;11.974;2022-11-18T11:10:12;40.43;;;17.87;;
9970;SDS011;5026;51.494;11.974;2022-11-18T11:12:47;36.07;;;16.37;;
9970;SDS011;5026;51.494;11.974;2022-11-18T11:15:20;41.40;;;18.10;;
9970;SDS011;5026;51.494;11.974;2022-11-18T11:17:52;38.00;;;16.50;;
9970;SDS011;5026;51.494;11.974;2022-11-18T11:20:38;31.63;;;13.90;;
9970;SDS011;5026;51.494;11.974;2022-11-18T11:23:07;27.80;;;12.97;;
9970;SDS011;5026;51.494;11.974;2022-11-18T11:25:38;33.33;;;15.33;;
9970;SDS011;5026;51.494;11.974;2022-11-18T11:28:11;34.03;;;16.33;;
9970;SDS011;5026;51.494;11.974;2022-11-18T11:30:47;34.80;;;16.37;;
9970;SDS011;5026;51.494;11.974;2022-11-18T11:33:23;36.60;;;16.47;;
9970;SDS011;5026;51.494;11.974;2022-11-18T11:36:00;32.83;;;16.17;;
9970;SDS011;5026;51.494;11.974;2022-11-18T11:38:39;33.37;;;16.47;;
9970;SDS011;5026;51.494;11.974;2022-11-18T11:41:23;31.30;;;15.30;;
9970;SDS011;5026;51.494;11.974;2022-11-18T11:43:58;34.57;;;16.13;;
9970;SDS011;5026;51.494;11.974;2022-11-18T11:46:41;39.83;;;16.53;;
9970;SDS011;5026;51.494;11.974;2022-11-18T11:49:36;35.07;;;15.97;;
9970;SDS011;5026;51.494;11.974;2022-11-18T11:52:16;32.73;;;14.33;;
9970;SDS011;5026;51.494;11.974;2022-11-18T11:54:49;32.73;;;15.53;;
9970;SDS011;5026;51.494;11.974;2022-11-18T11:57:26;37.80;;;16.57;;
9970;SDS011;5026;51.494;11.974;2022-11-18T12:00:04;36.47;;;17.93;;
9970;SDS011;5026;51.494;11.974;2022-11-18T12:02:38;30.27;;;16.17;;
9970;SDS011;5026;51.494;11.974;2022-11-18T12:05:25;34.37;;;15.50;;
9970;SDS011;5026;51.494;11.974;2022-11-18T12:07:58;32.50;;;15.83;;
9970;SDS011;5026;51.494;11.974;2022-11-18T12:10:28;34.77;;;15.57;;
9970;SDS011;5026;51.494;11.974;2022-11-18T12:13:13;30.67;;;14.97;;
9970;SDS011;5026;51.494;11.974;2022-11-18T12:15:50;34.13;;;15.33;;
9970;SDS011;5026;51.494;11.974;2022-11-18T12:18:28;32.90;;;14.73;;
9970;SDS011;5026;51.494;11.974;2022-11-18T12:21:00;30.23;;;15.60;;
9970;SDS011;5026;51.494;11.974;2022-11-18T12:23:27;29.33;;;14.60;;
9970;SDS011;5026;51.494;11.974;2022-11-18T12:25:59;27.33;;;13.03;;
9970;SDS011;5026;51.494;11.974;2022-11-18T12:28:30;23.80;;;13.30;;
9970;SDS011;5026;51.494;11.974;2022-11-18T12:34:00;24.67;;;13.27;;
9970;SDS011;5026;51.494;11.974;2022-11-18T12:36:43;27.03;;;13.77;;
9970;SDS011;5026;51.494;11.974;2022-11-18T12:48:27;35.67;;;16.80;;
9970;SDS011;5026;51.494;11.974;2022-11-18T12:50:57;39.67;;;21.87;;
9970;SDS011;5026;51.494;11.974;2022-11-18T12:53:35;43.77;;;24.17;;
9970;SDS011;5026;51.494;11.974;2022-11-18T12:56:11;40.10;;;23.20;;
9970;SDS011;5026;51.494;11.974;2022-11-18T12:58:47;47.63;;;26.40;;
9970;SDS011;5026;51.494;11.974;2022-11-18T13:01:16;41.03;;;25.67;;
9970;SDS011;5026;51.494;11.974;2022-11-18T13:03:46;43.47;;;25.00;;
9970;SDS011;5026;51.494;11.974;2022-11-18T13:06:23;45.13;;;24.73;;
9970;SDS011;5026;51.494;11.974;2022-11-18T13:08:52;42.87;;;24.10;;
9970;SDS011;5026;51.494;11.974;2022-11-18T13:11:21;44.60;;;22.60;;
9970;SDS011;5026;51.494;11.974;2022-11-18T13:14:12;44.47;;;24.10;;
9970;SDS011;5026;51.494;11.974;2022-11-18T13:16:59;44.50;;;25.13;;
9970;SDS011;5026;51.494;11.974;2022-11-18T13:19:54;50.63;;;27.43;;
9970;SDS011;5026;51.494;11.974;2022-11-18T13:22:21;47.07;;;27.90;;
9970;SDS011;5026;51.494;11.974;2022-11-18T13:25:21;46.37;;;24.47;;
9970;SDS011;5026;51.494;11.974;2022-11-18T13:27:50;47.50;;;28.77;;
9970;SDS011;5026;51.494;11.974;2022-11-18T13:30:23;44.77;;;24.57;;
9970;SDS011;5026;51.494;11.974;2022-11-18T13:32:52;41.40;;;23.63;;
9970;SDS011;5026;51.494;11.974;2022-11-18T13:35:24;43.77;;;23.90;;
9970;SDS011;5026;51.494;11.974;2022-11-18T13:37:53;41.63;;;22.17;;
9970;SDS011;5026;51.494;11.974;2022-11-18T13:40:22;40.23;;;22.77;;
9970;SDS011;5026;51.494;11.974;2022-11-18T13:42:51;42.77;;;24.90;;
9970;SDS011;5026;51.494;11.974;2022-11-18T13:45:17;44.13;;;22.60;;
9970;SDS011;5026;51.494;11.974;2022-11-18T13:47:47;47.37;;;25.30;;
9970;SDS011;5026;51.494;11.974;2022-11-18T13:50:18;46.77;;;24.20;;
9970;SDS011;5026;51.494;11.974;2022-11-18T13:52:54;47.20;;;26.30;;
9970;SDS011;5026;51.494;11.974;2022-11-18T13:55:29;49.80;;;24.10;;
9970;SDS011;5026;51.494;11.974;2022-11-18T13:58:01;53.03;;;25.60;;
9970;SDS011;5026;51.494;11.974;2022-11-18T14:00:34;52.13;;;26.47;;
9970;SDS011;5026;51.494;11.974;2022-11-18T14:03:02;61.00;;;30.10;;
9970;SDS011;5026;51.494;11.974;2022-11-18T14:05:30;61.83;;;31.03;;
9970;SDS011;5026;51.494;11.974;2022-11-18T14:08:00;69.77;;;34.40;;
9970;SDS011;5026;51.494;11.974;2022-11-18T14:10:28;71.20;;;37.97;;
9970;SDS011;5026;51.494;11.974;2022-11-18T14:12:57;76.70;;;36.97;;
9970;SDS011;5026;51.494;11.974;2022-11-18T14:15:32;70.30;;;34.57;;
9970;SDS011;5026;51.494;11.974;2022-11-18T14:18:00;88.57;;;45.17;;
9970;SDS011;5026;51.494;11.974;2022-11-18T14:20:28;76.03;;;37.40;;
9970;SDS011;5026;51.494;11.974;2022-11-18T14:22:56;83.17;;;36.47;;
9970;SDS011;5026;51.494;11.974;2022-11-18T14:25:26;83.83;;;34.20;;
9970;SDS011;5026;51.494;11.974;2022-11-18T14:27:54;82.03;;;35.23;;
9970;SDS011;5026;51.494;11.974;2022-11-18T14:30:25;81.70;;;34.37;;
9970;SDS011;5026;51.494;11.974;2022-11-18T14:35:47;83.30;;;33.87;;
9970;SDS011;5026;51.494;11.974;2022-11-18T14:38:15;84.40;;;34.13;;
9970;SDS011;5026;51.494;11.974;2022-11-18T14:40:45;98.00;;;42.73;;
9970;SDS011;5026;51.494;11.974;2022-11-18T14:43:15;91.53;;;35.63;;
9970;SDS011;5026;51.494;11.974;2022-11-18T14:45:42;114.40;;;50.97;;
9970;SDS011;5026;51.494;11.974;2022-11-18T14:48:09;88.00;;;33.77;;
9970;SDS011;5026;51.494;11.974;2022-11-18T14:50:37;116.07;;;46.33;;
9970;SDS011;5026;51.494;11.974;2022-11-18T14:53:04;101.73;;;36.70;;
9970;SDS011;5026;51.494;11.974;2022-11-18T14:55:33;122.17;;;49.87;;
9970;SDS011;5026;51.494;11.974;2022-11-18T14:58:03;124.90;;;44.67;;
9970;SDS011;5026;51.494;11.974;2022-11-18T15:00:30;119.03;;;46.00;;
9970;SDS011;5026;51.494;11.974;2022-11-18T15:02:57;123.00;;;43.90;;
9970;SDS011;5026;51.494;11.974;2022-11-18T15:05:24;122.13;;;46.67;;
9970;SDS011;5026;51.494;11.974;2022-11-18T15:07:51;119.57;;;45.40;;
9970;SDS011;5026;51.494;11.974;2022-11-18T15:10:19;128.47;;;52.17;;
9970;SDS011;5026;51.494;11.974;2022-11-18T15:12:46;115.13;;;45.57;;
9970;SDS011;5026;51.494;11.974;2022-11-18T15:15:14;111.20;;;42.37;;
9970;SDS011;5026;51.494;11.974;2022-11-18T15:17:42;115.93;;;43.73;;
9970;SDS011;5026;51.494;11.974;2022-11-18T15:20:11;112.93;;;43.73;;